Time;durP1;ratioP1;P1;durP2;ratioP2;P2;SDS_P1;SDS_P2;PMS_P1;PMS_P2;Temp;Humidity;BMP_temperature;BMP_pressure;BME280_temperature;BME280_humidity;BME280_pressure;Samples;Min_cycle;Max_cycle;Signal;HPM_P1;HPM_P2
2021/01/13 00:03:22;;;;;;;0.08;0.00;;;-2.60;96.10;;;;;;20911853;28;20064;-62
2021/01/13 00:13:24;;;;;;;0.00;0.00;;;-2.80;97.30;;;;;;20912434;28;20516;-62
2021/01/13 00:23:26;;;;;;;0.00;0.00;;;-2.70;98.20;;;;;;20892934;28;20048;-62
2021/01/13 00:33:28;;;;;;;0.10;0.00;;;-2.40;96.00;;;;;;20892640;28;20041;-62
2021/01/13 00:43:30;;;;;;;0.00;0.00;;;-2.80;96.50;;;;;;20909526;28;20099;-62
2021/01/13 00:53:32;;;;;;;0.00;0.00;;;-2.90;97.80;;;;;;20891592;28;20077;-63
2021/01/13 01:03:35;;;;;;;0.10;0.00;;;-3.00;97.40;;;;;;20907488;28;20052;-63
2021/01/13 01:13:37;;;;;;;0.00;0.00;;;-3.00;97.90;;;;;;20905221;28;20048;-62
2021/01/13 01:23:40;;;;;;;0.00;0.00;;;-3.00;98.80;;;;;;20895847;28;20294;-63
2021/01/13 01:33:42;;;;;;;0.00;0.00;;;-2.50;98.30;;;;;;20907002;28;20025;-63
2021/01/13 01:43:46;;;;;;;0.00;0.00;;;-2.00;97.40;;;;;;20906220;28;20041;-63
2021/01/13 01:54:22;;;;;;;0.00;0.00;;;-1.60;95.70;;;;;;20904805;28;20483;-64
2021/01/13 02:04:32;;;;;;;0.00;0.00;;;-1.40;95.70;;;;;;20887634;28;20080;-64
2021/01/13 02:14:34;;;;;;;0.00;0.00;;;-1.60;95.60;;;;;;20902329;28;20041;-64
2021/01/13 02:24:56;;;;;;;0.17;0.00;;;-1.70;95.20;;;;;;20920971;28;20041;-63
2021/01/13 02:35:17;;;;;;;0.00;0.00;;;-1.80;95.20;;;;;;20901701;28;20045;-64
2021/01/13 02:45:23;;;;;;;0.00;0.00;;;-1.70;94.40;;;;;;20900573;28;20399;-62
2021/01/13 02:55:28;;;;;;;0.00;0.00;;;-1.50;94.60;;;;;;20900399;28;20194;-62
2021/01/13 03:05:32;;;;;;;0.00;0.00;;;-1.30;92.80;;;;;;20898108;28;20072;-63
2021/01/13 03:15:36;;;;;;;0.00;0.00;;;-1.20;93.50;;;;;;20898897;28;20063;-62
2021/01/13 03:25:54;;;;;;;0.00;0.00;;;-1.40;93.50;;;;;;20914742;28;20526;-62
2021/01/13 03:36:16;;;;;;;0.00;0.00;;;-0.20;84.90;;;;;;20915706;28;20049;-62
2021/01/13 03:46:18;;;;;;;0.00;0.00;;;0.30;84.70;;;;;;20914529;28;20091;-62
2021/01/13 03:56:26;;;;;;;0.00;0.00;;;-0.70;89.70;;;;;;20913238;28;20118;-63
2021/01/13 04:06:29;;;;;;;0.10;0.00;;;-1.30;91.10;;;;;;20912348;28;20041;-62
2021/01/13 04:16:38;;;;;;;0.00;0.00;;;-1.70;93.40;;;;;;20894147;28;20428;-62
2021/01/13 04:26:41;;;;;;;0.20;0.05;;;-1.50;94.10;;;;;;20892213;28;20095;-62
2021/01/13 04:36:49;;;;;;;0.10;0.00;;;-1.30;91.70;;;;;;20908333;28;20110;-62
2021/01/13 04:47:02;;;;;;;0.15;0.00;;;-1.70;93.60;;;;;;20891750;28;20040;-64
2021/01/13 04:57:12;;;;;;;0.00;0.00;;;-2.10;94.80;;;;;;20891430;28;20053;-65
2021/01/13 05:07:36;;;;;;;0.00;0.00;;;-0.60;90.40;;;;;;20891422;28;20053;-62
2021/01/13 05:18:10;;;;;;;0.00;0.00;;;-0.50;87.70;;;;;;20908074;28;20053;-62
2021/01/13 05:28:23;;;;;;;0.00;0.00;;;-0.90;91.20;;;;;;20899482;28;20490;-65
2021/01/13 05:38:47;;;;;;;0.00;0.00;;;-1.20;89.70;;;;;;20906421;28;20110;-62
2021/01/13 05:48:51;;;;;;;0.00;0.00;;;-0.80;88.90;;;;;;20920842;28;20052;-62
2021/01/13 05:59:04;;;;;;;0.00;0.00;;;-1.10;88.70;;;;;;20905369;28;20037;-62
2021/01/13 06:09:07;;;;;;;0.08;0.00;;;-2.00;91.90;;;;;;20920499;28;20053;-62
2021/01/13 06:19:11;;;;;;;0.10;0.00;;;-2.30;92.60;;;;;;20921429;28;20040;-62
2021/01/13 06:29:38;;;;;;;0.10;0.00;;;-2.50;92.80;;;;;;20919521;28;20115;-62
2021/01/13 06:39:41;;;;;;;0.00;0.00;;;-2.70;93.40;;;;;;20919428;28;20549;-62
2021/01/13 06:49:49;;;;;;;0.05;0.00;;;-2.60;92.00;;;;;;20900788;28;20037;-62
2021/01/13 06:59:51;;;;;;;0.10;0.00;;;-2.70;92.10;;;;;;20917643;28;20491;-63
2021/01/13 07:09:53;;;;;;;0.00;0.00;;;-2.90;93.00;;;;;;20899470;28;20095;-62
2021/01/13 07:19:57;;;;;;;0.00;0.00;;;-3.20;91.30;;;;;;20916613;28;20132;-62
2021/01/13 07:30:00;;;;;;;4.85;0.10;;;-3.00;92.20;;;;;;20897600;28;20434;-61
2021/01/13 07:40:12;;;;;;;0.17;0.00;;;-2.70;90.70;;;;;;20915451;28;20110;-62
2021/01/13 07:50:15;;;;;;;0.00;0.00;;;-2.40;88.50;;;;;;20915149;28;20045;-62
2021/01/13 08:00:25;;;;;;;0.10;0.00;;;-2.10;87.50;;;;;;20896473;28;20045;-64
2021/01/13 08:10:30;;;;;;;0.22;0.00;;;-1.70;88.00;;;;;;20912477;28;20049;-63
2021/01/13 08:21:13;;;;;;;0.38;0.00;;;-0.30;75.70;;;;;;20911431;28;20044;-63
2021/01/13 08:31:26;;;;;;;0.60;0.00;;;0.60;76.00;;;;;;20910290;28;20045;-62
2021/01/13 08:41:29;;;;;;;0.30;0.00;;;0.80;73.50;;;;;;20892977;28;20087;-63
2021/01/13 08:51:31;;;;;;;0.00;0.00;;;1.60;71.30;;;;;;20910058;28;20055;-63
2021/01/13 09:01:37;;;;;;;0.98;0.00;;;2.20;62.70;;;;;;20907193;28;20045;-63
2021/01/13 09:11:40;;;;;;;0.00;0.00;;;2.80;64.00;;;;;;20907378;28;20049;-64
2021/01/13 09:21:42;;;;;;;0.13;0.00;;;3.30;59.40;;;;;;20905794;28;20116;-64
2021/01/13 09:32:12;;;;;;;0.20;0.03;;;3.90;63.70;;;;;;20906959;28;20049;-64
2021/01/13 09:42:16;;;;;;;0.00;0.00;;;4.70;62.80;;;;;;20906189;28;20045;-65
2021/01/13 09:52:19;;;;;;;0.10;0.00;;;4.80;61.10;;;;;;20905897;28;20037;-65
2021/01/13 10:02:24;;;;;;;1.60;0.10;;;5.30;59.30;;;;;;20905271;28;20041;-64
2021/01/13 10:12:49;;;;;;;0.00;0.00;;;5.80;59.60;;;;;;20905543;28;20033;-65
2021/01/13 10:22:52;;;;;;;0.10;0.00;;;6.00;57.40;;;;;;20887508;28;20045;-64
2021/01/13 10:32:56;;;;;;;0.30;0.10;;;6.00;58.50;;;;;;20914586;28;20448;-64
2021/01/13 10:42:58;;;;;;;0.20;0.00;;;6.00;57.10;;;;;;20920157;28;20114;-64
2021/01/13 10:53:01;;;;;;;0.10;0.10;;;6.60;56.20;;;;;;20919416;28;20445;-64
2021/01/13 11:03:03;;;;;;;0.05;0.00;;;7.80;53.60;;;;;;20918659;28;20065;-65
2021/01/13 11:13:08;;;;;;;0.20;0.10;;;8.30;42.10;;;;;;20899222;28;20498;-65
2021/01/13 11:23:10;;;;;;;0.20;0.10;;;8.70;47.60;;;;;;20898965;28;20032;-65
2021/01/13 11:33:16;;;;;;;0.68;0.22;;;9.30;48.20;;;;;;20915343;28;20396;-65
2021/01/13 11:44:04;;;;;;;1.10;0.22;;;9.40;47.40;;;;;;20896454;28;20048;-66
2021/01/13 11:54:07;;;;;;;0.57;0.25;;;8.50;47.40;;;;;;20856491;28;20115;-66
2021/01/13 12:04:12;;;;;;;0.75;0.40;;;9.10;48.80;;;;;;21019850;23;20062;-66
2021/01/13 12:14:14;;;;;;;1.58;0.47;;;9.20;44.60;;;;;;20749219;28;20080;-67
2021/01/13 12:24:23;;;;;;;1.30;0.80;;;8.90;48.70;;;;;;20703737;28;20096;-66
2021/01/13 12:34:29;;;;;;;1.50;0.80;;;9.30;49.20;;;;;;20663255;28;20109;-66
2021/01/13 21:01:48;;;;;;;0.43;0.10;;;-3.40;88.90;;;;;;21379980;27;20107;-70
2021/01/13 21:11:51;;;;;;;0.50;0.20;;;-2.40;85.30;;;;;;21200940;27;20394;-66
2021/01/13 21:21:54;;;;;;;0.17;0.10;;;-1.80;79.70;;;;;;21160424;28;20044;-67
2021/01/13 21:31:57;;;;;;;0.28;0.10;;;-0.20;73.40;;;;;;21198828;28;20043;-67
2021/01/13 21:41:59;;;;;;;1.27;0.40;;;0.30;72.70;;;;;;21172890;28;20043;-66
2021/01/13 21:52:00;;;;;;;1.00;0.20;;;-0.20;70.90;;;;;;21227375;28;20450;-67
2021/01/13 22:02:02;;;;;;;2.05;0.90;;;-0.50;71.60;;;;;;21226987;28;20476;-66
2021/01/13 22:12:05;;;;;;;3.95;1.48;;;-1.10;73.20;;;;;;21156654;28;20080;-63
2021/01/13 22:22:07;;;;;;;1.63;0.60;;;-2.00;76.60;;;;;;21168553;28;20481;-65
2021/01/13 22:32:09;;;;;;;1.40;0.50;;;-2.30;86.50;;;;;;21168484;28;20036;-67
2021/01/13 22:42:12;;;;;;;1.88;0.77;;;-2.70;89.50;;;;;;21167009;28;20073;-65
2021/01/13 22:52:16;;;;;;;1.40;0.50;;;-2.80;92.50;;;;;;21166139;28;20097;-63
2021/01/13 23:02:17;;;;;;;1.80;0.80;;;-3.00;93.10;;;;;;21165750;28;20388;-66
2021/01/13 23:12:19;;;;;;;0.73;0.40;;;-3.20;94.30;;;;;;21164615;28;20036;-70
2021/01/13 23:22:21;;;;;;;1.17;0.50;;;-3.40;93.80;;;;;;21162799;28;20047;-70
2021/01/13 23:32:24;;;;;;;1.40;0.68;;;-3.20;94.50;;;;;;21162992;28;20038;-72
2021/01/13 23:42:28;;;;;;;1.55;0.57;;;-3.30;94.20;;;;;;21127171;28;20047;-74
2021/01/13 23:52:35;;;;;;;1.02;0.40;;;-3.30;94.90;;;;;;21143404;28;20048;-73
